createdAt,value
2023-05-22T00:02:13.523Z,72.86
2023-05-22T00:04:40.051Z,73.06
2023-05-22T00:07:07.104Z,72.61
2023-05-22T00:09:33.532Z,72.62
2023-05-22T00:12:00.002Z,72.98
2023-05-22T00:14:26.412Z,72.68
2023-05-22T00:16:53.351Z,72.76
2023-05-22T00:19:23.193Z,72.76
2023-05-22T00:21:51.344Z,73.15
2023-05-22T00:24:17.901Z,72.82
2023-05-22T00:26:44.315Z,72.84
2023-05-22T00:29:10.833Z,72.44
2023-05-22T00:31:37.270Z,72.82
2023-05-22T00:34:03.762Z,73.14
2023-05-22T00:36:30.303Z,72.93
2023-05-22T00:38:56.800Z,73.24
2023-05-22T00:41:23.758Z,73.23
2023-05-22T00:43:51.215Z,73.04
2023-05-22T00:46:21.389Z,73.13
2023-05-22T00:48:48.953Z,73.65
2023-05-22T00:51:15.845Z,73.61
2023-05-22T00:53:43.370Z,74.21
2023-05-22T00:56:10.257Z,74.44
2023-05-22T00:58:37.510Z,73.88
2023-05-22T01:01:05.404Z,74.30
2023-05-22T01:03:32.185Z,74.49
2023-05-22T01:05:58.770Z,74.73
2023-05-22T01:08:25.239Z,74.78
2023-05-22T01:11:14.051Z,75.50
2023-05-22T01:14:00.629Z,74.85
2023-05-22T01:16:32.310Z,75.33
2023-05-22T01:19:22.514Z,75.68
2023-05-22T01:22:13.697Z,75.68
2023-05-22T01:24:58.246Z,75.92
2023-05-22T01:28:06.364Z,75.97
2023-05-22T01:30:50.037Z,75.94
2023-05-22T01:33:18.050Z,75.13
2023-05-22T01:35:48.507Z,75.05
2023-05-22T01:38:16.604Z,75.54
2023-05-22T01:40:45.746Z,75.66
2023-05-22T01:43:14.214Z,75.66
2023-05-22T01:45:40.767Z,76.04
2023-05-22T01:48:07.301Z,75.71
2023-05-22T01:50:34.126Z,76.20
2023-05-22T01:53:15.441Z,75.89
2023-05-22T01:56:05.248Z,75.77
2023-05-22T01:58:58.699Z,75.44
2023-05-22T02:01:28.935Z,75.50
2023-05-22T02:03:58.056Z,75.34
2023-05-22T02:06:32.444Z,75.99
2023-05-22T02:09:01.247Z,75.96
2023-05-22T02:11:30.501Z,75.88
2023-05-22T02:13:57.804Z,75.42
2023-05-22T02:16:24.505Z,75.28
2023-05-22T02:18:51.350Z,75.22
2023-05-22T02:21:17.815Z,75.41
2023-05-22T02:23:44.547Z,75.34
2023-05-22T02:26:11.054Z,75.65
2023-05-22T02:28:37.959Z,75.23
2023-05-22T02:31:04.493Z,75.38
2023-05-22T02:33:30.942Z,74.86
2023-05-22T02:35:57.388Z,75.01
2023-05-22T02:38:23.991Z,74.68
2023-05-22T02:40:50.471Z,74.64
2023-05-22T02:43:16.899Z,75.07
2023-05-22T02:45:43.326Z,74.58
2023-05-22T02:48:09.790Z,74.44
2023-05-22T02:50:36.287Z,74.53
2023-05-22T02:53:02.707Z,74.20
2023-05-22T02:55:29.157Z,74.61
2023-05-22T02:57:55.588Z,74.39
2023-05-22T03:00:22.569Z,74.70
2023-05-22T03:02:49.141Z,74.19
2023-05-22T03:05:17.661Z,74.33
2023-05-22T03:07:47.365Z,74.53
2023-05-22T03:10:14.849Z,75.02
2023-05-22T03:12:41.280Z,74.37
2023-05-22T03:15:08.322Z,74.15
2023-05-22T03:17:34.856Z,74.68
2023-05-22T03:20:01.320Z,74.75
2023-05-22T03:22:27.737Z,74.30
2023-05-22T03:24:54.169Z,74.07
2023-05-22T03:27:21.239Z,74.37
2023-05-22T03:29:47.683Z,74.49
2023-05-22T03:32:14.122Z,73.92
2023-05-22T03:34:41.080Z,73.69
2023-05-22T03:37:09.002Z,73.94
2023-05-22T03:39:36.103Z,73.57
2023-05-22T03:42:02.582Z,73.72
2023-05-22T03:44:29.036Z,74.01
2023-05-22T03:46:55.582Z,73.20
2023-05-22T03:49:22.023Z,73.04
2023-05-22T03:51:48.507Z,73.35
2023-05-22T03:54:14.924Z,73.26
2023-05-22T03:56:41.351Z,73.27
2023-05-22T03:59:07.775Z,73.60
2023-05-22T04:01:34.598Z,73.86
2023-05-22T04:04:01.974Z,73.80
2023-05-22T04:06:32.794Z,73.50
2023-05-22T04:09:00.624Z,73.10
2023-05-22T04:11:27.137Z,73.30
2023-05-22T04:13:53.578Z,72.56
2023-05-22T04:16:20.902Z,73.13
2023-05-22T04:18:47.387Z,72.89
2023-05-22T04:21:13.812Z,72.52
2023-05-22T04:23:43.224Z,72.43
2023-05-22T04:26:10.261Z,72.58
2023-05-22T04:28:36.796Z,72.48
2023-05-22T04:31:06.356Z,72.58
2023-05-22T04:33:34.416Z,72.41
2023-05-22T04:36:02.262Z,71.86
2023-05-22T04:38:28.879Z,72.08
2023-05-22T04:40:55.311Z,71.93
2023-05-22T04:43:23.396Z,71.94
2023-05-22T04:45:49.856Z,71.86
2023-05-22T04:48:16.294Z,70.58
2023-05-22T04:50:46.310Z,69.98
2023-05-22T04:53:13.090Z,69.81
2023-05-22T04:55:39.820Z,68.93
2023-05-22T04:58:06.424Z,68.52
2023-05-22T05:00:33.269Z,68.66
2023-05-22T05:03:00.414Z,68.59
2023-05-22T05:05:27.154Z,67.55
2023-05-22T05:07:53.577Z,68.70
2023-05-22T05:10:20.047Z,67.96
2023-05-22T05:12:46.535Z,67.67
2023-05-22T05:15:12.985Z,67.64
2023-05-22T05:17:39.513Z,66.57
2023-05-22T05:20:07.758Z,65.82
2023-05-22T05:22:34.367Z,65.71
2023-05-22T05:25:01.106Z,65.29
2023-05-22T05:27:27.564Z,64.54
2023-05-22T05:29:54.149Z,65.22
2023-05-22T05:32:20.928Z,64.22
2023-05-22T05:34:47.445Z,62.25
2023-05-22T05:37:14.157Z,62.42
2023-05-22T05:39:40.799Z,61.63
2023-05-22T05:42:07.302Z,61.28
2023-05-22T05:44:33.772Z,60.19
2023-05-22T05:47:01.298Z,58.92
2023-05-22T05:49:27.708Z,56.83
2023-05-22T05:51:54.197Z,57.14
2023-05-22T05:54:21.652Z,56.19
2023-05-22T05:56:48.452Z,55.79
2023-05-22T05:59:14.954Z,55.57
2023-05-22T06:01:44.616Z,55.42
2023-05-22T06:04:11.767Z,54.80
2023-05-22T06:06:39.498Z,54.58
2023-05-22T06:09:06.644Z,53.75
2023-05-22T06:11:34.029Z,53.25
2023-05-22T06:14:04.897Z,53.00
2023-05-22T06:16:31.537Z,52.03
2023-05-22T06:18:59.319Z,51.79
2023-05-22T06:21:26.090Z,50.17
2023-05-22T06:23:52.826Z,48.11
2023-05-22T06:26:19.356Z,46.78
2023-05-22T06:28:45.837Z,47.82
2023-05-22T06:31:12.323Z,47.78
2023-05-22T06:33:40.634Z,46.82
2023-05-22T06:36:08.803Z,48.18
2023-05-22T06:38:35.405Z,48.11
2023-05-22T06:41:01.976Z,48.53
2023-05-22T06:43:28.451Z,47.71
2023-05-22T06:45:54.958Z,47.51
2023-05-22T06:48:21.485Z,47.03
2023-05-22T06:50:47.952Z,46.11
2023-05-22T06:53:14.463Z,47.64
2023-05-22T06:55:41.924Z,46.67
2023-05-22T06:58:08.482Z,45.38
2023-05-22T07:00:35.282Z,45.77
2023-05-22T07:03:02.331Z,43.29
2023-05-22T07:05:28.955Z,44.24
2023-05-22T07:07:55.616Z,44.56
2023-05-22T07:10:22.149Z,42.73
2023-05-22T07:12:48.616Z,44.52
2023-05-22T07:15:15.160Z,45.57
2023-05-22T07:17:41.873Z,44.22
2023-05-22T07:20:09.657Z,45.74
2023-05-22T07:22:36.159Z,44.00
2023-05-22T07:25:02.634Z,43.84
2023-05-22T07:27:29.104Z,40.54
2023-05-22T07:29:55.553Z,40.81
2023-05-22T07:32:22.193Z,39.69
2023-05-22T07:34:50.037Z,39.09
2023-05-22T07:37:16.522Z,41.00
2023-05-22T07:39:43.068Z,38.86
2023-05-22T07:42:09.621Z,37.22
2023-05-22T07:44:36.087Z,38.63
2023-05-22T07:47:02.639Z,36.82
2023-05-22T07:49:29.107Z,37.98
2023-05-22T07:51:55.587Z,37.36
2023-05-22T07:54:22.071Z,37.32
2023-05-22T07:56:48.582Z,37.95
2023-05-22T07:59:16.230Z,37.29
2023-05-22T08:01:42.797Z,35.86
2023-05-22T08:04:09.811Z,36.98
2023-05-22T08:06:36.697Z,36.21
2023-05-22T08:09:04.840Z,35.67
2023-05-22T08:11:31.386Z,34.88
2023-05-22T08:13:58.090Z,37.59
2023-05-22T08:16:24.642Z,37.06
2023-05-22T08:18:51.518Z,36.53
2023-05-22T08:21:18.666Z,34.93
2023-05-22T08:23:45.213Z,35.66
2023-05-22T08:26:11.879Z,34.30
2023-05-22T08:28:41.962Z,34.73
2023-05-22T08:31:08.502Z,33.66
2023-05-22T08:33:34.963Z,33.93
2023-05-22T08:36:01.413Z,34.05
2023-05-22T08:38:27.890Z,32.36
2023-05-22T08:40:55.658Z,33.75
2023-05-22T08:43:22.317Z,31.58
2023-05-22T08:45:55.929Z,31.44
2023-05-22T08:48:23.735Z,31.03
2023-05-22T08:50:58.137Z,31.31
2023-05-22T08:53:28.230Z,31.73
2023-05-22T08:55:55.331Z,29.07
2023-05-22T08:58:22.276Z,29.12
2023-05-22T09:00:49.387Z,28.97
2023-05-22T09:03:16.171Z,28.88
2023-05-22T09:05:45.367Z,27.60
2023-05-22T09:08:19.697Z,29.93
2023-05-22T09:10:47.887Z,28.75
2023-05-22T09:13:25.162Z,28.18
2023-05-22T09:15:51.688Z,29.22
2023-05-22T09:18:18.248Z,26.68
2023-05-22T09:20:44.874Z,28.47
2023-05-22T09:23:17.745Z,27.33
2023-05-22T09:25:44.892Z,28.33
2023-05-22T09:28:12.783Z,27.36
2023-05-22T09:30:40.134Z,28.67
2023-05-22T09:33:08.753Z,27.71
2023-05-22T09:35:38.946Z,27.12
2023-05-22T09:38:06.434Z,28.02
2023-05-22T09:40:35.123Z,26.99
2023-05-22T09:43:07.051Z,26.59
2023-05-22T09:45:35.875Z,25.87
2023-05-22T09:48:06.730Z,26.82
2023-05-22T09:50:33.275Z,28.32
2023-05-22T09:53:03.067Z,27.50
2023-05-22T09:55:30.872Z,26.92
2023-05-22T09:57:58.286Z,25.98
2023-05-22T10:00:25.545Z,26.47
2023-05-22T10:02:58.886Z,27.69
2023-05-22T10:05:30.834Z,26.88
2023-05-22T10:08:13.932Z,26.72
2023-05-22T10:10:43.164Z,25.88
2023-05-22T10:13:10.984Z,25.52
2023-05-22T10:15:38.112Z,26.96
2023-05-22T10:18:05.872Z,27.09
2023-05-22T10:20:32.839Z,27.18
2023-05-22T10:23:02.565Z,27.76
2023-05-22T10:25:30.280Z,28.32
2023-05-22T10:27:58.000Z,27.55
2023-05-22T10:30:39.707Z,28.82
2023-05-22T10:33:18.210Z,28.94
2023-05-22T10:35:52.923Z,29.31
2023-05-22T10:38:46.856Z,30.18
2023-05-22T10:41:14.142Z,31.02
2023-05-22T10:43:44.306Z,30.07
2023-05-22T10:46:12.977Z,29.52
2023-05-22T10:48:41.719Z,29.47
2023-05-22T10:51:08.965Z,30.52
2023-05-22T10:53:36.202Z,31.33
2023-05-22T10:56:14.018Z,31.80
2023-05-22T10:58:44.094Z,32.55
2023-05-22T11:01:12.762Z,32.22
2023-05-22T11:03:58.289Z,33.59
2023-05-22T11:06:49.013Z,32.60
2023-05-22T11:09:31.298Z,33.70
2023-05-22T11:12:22.528Z,33.33
2023-05-22T11:14:51.403Z,33.86
2023-05-22T11:17:23.437Z,33.23
2023-05-22T11:20:05.320Z,34.22
2023-05-22T11:22:35.000Z,34.62
2023-05-22T11:25:05.279Z,33.97
2023-05-22T11:27:32.072Z,34.37
2023-05-22T11:30:00.217Z,34.29
2023-05-22T11:32:27.703Z,34.20
2023-05-22T11:34:57.934Z,33.45
2023-05-22T11:37:24.518Z,34.46
2023-05-22T11:39:55.940Z,34.38
2023-05-22T11:42:22.532Z,34.62
2023-05-22T11:44:49.073Z,36.76
2023-05-22T11:47:15.817Z,38.48
2023-05-22T11:49:43.088Z,41.13
2023-05-22T11:52:10.457Z,42.28
2023-05-22T11:54:38.766Z,43.24
2023-05-22T11:57:09.237Z,43.74
2023-05-22T11:59:36.173Z,43.93
2023-05-22T12:02:02.799Z,43.56
2023-05-22T12:04:29.698Z,44.45
2023-05-22T12:06:56.653Z,44.42
2023-05-22T12:09:23.494Z,45.28
2023-05-22T12:11:50.336Z,44.11
2023-05-22T12:14:16.861Z,44.43
2023-05-22T12:16:44.527Z,43.95
2023-05-22T12:19:12.140Z,44.35
2023-05-22T12:21:39.490Z,44.10
2023-05-22T12:24:06.597Z,45.04
2023-05-22T12:26:33.176Z,44.92
2023-05-22T12:28:59.755Z,45.44
2023-05-22T12:31:26.519Z,46.07
2023-05-22T12:33:55.019Z,47.12
2023-05-22T12:36:22.087Z,46.26
2023-05-22T12:38:48.592Z,45.79
2023-05-22T12:41:15.227Z,46.24
2023-05-22T12:43:41.729Z,46.47
2023-05-22T12:46:08.241Z,46.05
2023-05-22T12:48:34.811Z,47.08
2023-05-22T12:51:01.379Z,46.88
2023-05-22T12:53:27.884Z,47.92
2023-05-22T12:55:54.372Z,47.09
2023-05-22T12:58:20.916Z,47.23
2023-05-22T13:00:47.492Z,46.02
2023-05-22T13:03:14.112Z,45.97
2023-05-22T13:05:40.924Z,45.73
2023-05-22T13:08:07.799Z,45.54
2023-05-22T13:10:35.430Z,45.36
2023-05-22T13:13:01.916Z,44.92
2023-05-22T13:15:29.615Z,45.19
2023-05-22T13:17:56.865Z,44.95
2023-05-22T13:20:23.721Z,45.52
2023-05-22T13:22:50.360Z,43.98
2023-05-22T13:25:19.071Z,41.54
2023-05-22T13:27:46.558Z,41.93
2023-05-22T13:30:13.438Z,42.08
2023-05-22T13:32:40.009Z,41.62
2023-05-22T13:35:06.868Z,42.72
2023-05-22T13:37:33.378Z,40.78
2023-05-22T13:39:59.800Z,41.71
2023-05-22T13:42:26.296Z,40.97
2023-05-22T13:44:52.759Z,41.66
2023-05-22T13:47:19.267Z,41.70
2023-05-22T13:49:45.885Z,41.14
2023-05-22T13:52:12.327Z,40.62
2023-05-22T13:54:38.771Z,40.80
2023-05-22T13:57:06.559Z,41.04
2023-05-22T13:59:33.208Z,41.11
2023-05-22T14:01:59.669Z,41.72
2023-05-22T14:04:26.496Z,42.46
2023-05-22T14:06:53.012Z,42.84
2023-05-22T14:09:19.661Z,42.99
2023-05-22T14:11:46.451Z,42.15
2023-05-22T14:14:12.992Z,40.94
2023-05-22T14:16:39.501Z,42.35
2023-05-22T14:19:06.044Z,41.87
2023-05-22T14:21:33.050Z,40.90
2023-05-22T14:24:00.893Z,41.71
2023-05-22T14:26:27.329Z,41.26
2023-05-22T14:28:54.012Z,42.27
2023-05-22T14:31:20.507Z,42.33
2023-05-22T14:33:46.989Z,41.69
2023-05-22T14:36:13.433Z,42.33
2023-05-22T14:38:39.863Z,42.02
2023-05-22T14:41:06.330Z,42.61
2023-05-22T14:43:33.419Z,42.02
2023-05-22T14:46:00.008Z,42.21
2023-05-22T14:48:26.905Z,43.86
2023-05-22T14:50:53.809Z,43.10
2023-05-22T14:53:20.724Z,43.46
2023-05-22T14:55:47.524Z,42.27
2023-05-22T14:58:14.146Z,43.19
2023-05-22T15:00:42.658Z,42.92
2023-05-22T15:03:09.137Z,42.16
2023-05-22T15:05:35.588Z,42.07
2023-05-22T15:08:02.114Z,42.66
2023-05-22T15:10:28.636Z,42.88
2023-05-22T15:12:55.136Z,42.37
2023-05-22T15:15:21.605Z,42.53
2023-05-22T15:17:48.045Z,42.85
2023-05-22T15:20:14.538Z,42.84
2023-05-22T15:22:41.099Z,43.10
2023-05-22T15:25:11.373Z,43.21
2023-05-22T15:27:39.410Z,43.81
2023-05-22T15:30:09.751Z,43.63
2023-05-22T15:32:37.115Z,42.99
2023-05-22T15:35:05.388Z,43.48
2023-05-22T15:37:33.632Z,43.10
2023-05-22T15:40:01.317Z,43.58
2023-05-22T15:42:27.849Z,43.60
2023-05-22T15:44:54.417Z,44.11
2023-05-22T15:47:21.064Z,43.84
2023-05-22T15:49:47.508Z,44.50
2023-05-22T15:52:13.944Z,44.19
2023-05-22T15:54:40.474Z,43.98
2023-05-22T15:57:07.026Z,44.50
2023-05-22T15:59:33.486Z,44.23
2023-05-22T16:01:59.919Z,43.91
2023-05-22T16:04:26.349Z,45.35
2023-05-22T16:06:52.783Z,45.07
2023-05-22T16:09:19.465Z,44.66
2023-05-22T16:11:45.957Z,44.87
2023-05-22T16:14:12.423Z,45.01
2023-05-22T16:16:38.975Z,45.69
2023-05-22T16:19:05.706Z,45.80
2023-05-22T16:21:32.294Z,46.04
2023-05-22T16:23:59.456Z,46.02
2023-05-22T16:26:26.835Z,45.54
2023-05-22T16:28:53.274Z,44.81
2023-05-22T16:31:19.879Z,45.12
2023-05-22T16:33:46.393Z,44.68
2023-05-22T16:36:12.812Z,44.93
2023-05-22T16:38:39.360Z,45.89
2023-05-22T16:41:05.789Z,45.39
2023-05-22T16:43:32.208Z,45.30
2023-05-22T16:45:58.650Z,45.67
2023-05-22T16:48:25.133Z,45.36
2023-05-22T16:50:51.638Z,45.87
2023-05-22T16:53:18.091Z,45.39
2023-05-22T16:55:44.665Z,46.25
2023-05-22T16:58:12.743Z,46.39
2023-05-22T17:00:40.290Z,46.72
2023-05-22T17:03:08.090Z,45.71
2023-05-22T17:05:35.749Z,46.74
2023-05-22T17:08:02.188Z,47.14
2023-05-22T17:10:28.794Z,46.64
2023-05-22T17:12:55.307Z,47.33
2023-05-22T17:15:21.743Z,46.49
2023-05-22T17:17:48.264Z,46.88
2023-05-22T17:20:14.786Z,46.92
2023-05-22T17:22:42.586Z,47.35
2023-05-22T17:25:09.641Z,47.04
2023-05-22T17:27:36.978Z,46.47
2023-05-22T17:30:04.836Z,47.16
2023-05-22T17:32:31.650Z,47.58
2023-05-22T17:34:58.574Z,47.43
2023-05-22T17:37:25.070Z,47.84
2023-05-22T17:39:51.811Z,47.73
2023-05-22T17:42:18.343Z,47.36
2023-05-22T17:44:45.006Z,47.53
2023-05-22T17:47:13.191Z,48.02
2023-05-22T17:49:39.598Z,48.15
2023-05-22T17:52:07.444Z,47.98
2023-05-22T17:54:35.022Z,48.14
2023-05-22T17:57:03.938Z,47.86
2023-05-22T17:59:32.572Z,47.85
2023-05-22T18:01:59.142Z,47.42
2023-05-22T18:04:25.971Z,47.49
2023-05-22T18:06:52.478Z,48.21
2023-05-22T18:09:18.948Z,48.46
2023-05-22T18:11:45.429Z,49.00
2023-05-22T18:14:11.980Z,49.89
2023-05-22T18:16:38.549Z,50.23
2023-05-22T18:19:05.065Z,50.17
2023-05-22T18:21:32.221Z,50.34
2023-05-22T18:23:58.805Z,50.87
2023-05-22T18:26:26.632Z,49.85
2023-05-22T18:28:53.095Z,51.17
2023-05-22T18:31:19.627Z,51.59
2023-05-22T18:33:46.526Z,51.52
2023-05-22T18:36:13.039Z,51.81
2023-05-22T18:38:39.564Z,51.45
2023-05-22T18:41:06.511Z,51.42
2023-05-22T18:43:33.001Z,52.10
2023-05-22T18:45:59.493Z,51.69
2023-05-22T18:48:27.138Z,53.18
2023-05-22T18:50:53.787Z,53.10
2023-05-22T18:53:22.099Z,54.23
2023-05-22T18:55:48.796Z,53.75
2023-05-22T18:58:15.340Z,54.68
2023-05-22T19:00:42.101Z,54.78
2023-05-22T19:03:11.204Z,54.07
2023-05-22T19:05:38.009Z,54.84
2023-05-22T19:08:05.010Z,55.09
2023-05-22T19:10:31.706Z,55.49
2023-05-22T19:12:58.142Z,55.94
2023-05-22T19:15:25.799Z,55.76
2023-05-22T19:17:52.295Z,55.83
2023-05-22T19:20:18.746Z,56.23
2023-05-22T19:22:45.171Z,57.25
2023-05-22T19:25:11.641Z,56.50
2023-05-22T19:27:39.081Z,57.77
2023-05-22T19:30:06.685Z,58.73
2023-05-22T19:32:33.158Z,59.67
2023-05-22T19:34:59.656Z,58.96
2023-05-22T19:37:26.160Z,59.37
2023-05-22T19:39:53.987Z,59.54
2023-05-22T19:42:20.448Z,60.06
2023-05-22T19:44:47.047Z,60.71
2023-05-22T19:47:13.517Z,60.76
2023-05-22T19:49:40.007Z,62.03
2023-05-22T19:52:06.614Z,61.56
2023-05-22T19:54:33.129Z,61.71
2023-05-22T19:56:59.573Z,61.75
2023-05-22T19:59:27.004Z,60.96
2023-05-22T20:01:53.982Z,60.63
2023-05-22T20:04:21.392Z,61.02
2023-05-22T20:06:48.385Z,59.64
2023-05-22T20:09:15.004Z,59.83
2023-05-22T20:11:41.462Z,59.60
2023-05-22T20:14:08.236Z,60.39
2023-05-22T20:16:34.939Z,60.73
2023-05-22T20:19:02.506Z,61.27
2023-05-22T20:21:29.157Z,61.66
2023-05-22T20:23:55.682Z,62.64
2023-05-22T20:26:22.240Z,61.81
2023-05-22T20:28:48.674Z,63.09
2023-05-22T20:31:15.160Z,64.51
2023-05-22T20:33:41.841Z,63.99
2023-05-22T20:36:08.643Z,65.69
2023-05-22T20:38:35.145Z,66.00
2023-05-22T20:41:02.854Z,65.81
2023-05-22T20:43:31.973Z,67.67
2023-05-22T20:45:58.465Z,67.90
2023-05-22T20:48:24.962Z,66.60
2023-05-22T20:50:52.383Z,69.30
2023-05-22T20:53:19.470Z,70.54
2023-05-22T20:55:45.944Z,69.68
2023-05-22T20:58:13.822Z,67.51
2023-05-22T21:00:41.926Z,66.56
2023-05-22T21:03:08.798Z,69.26
2023-05-22T21:05:35.656Z,68.61
2023-05-22T21:08:02.200Z,69.70
2023-05-22T21:10:28.713Z,70.29
2023-05-22T21:12:55.165Z,71.44
2023-05-22T21:15:21.686Z,71.68
2023-05-22T21:17:48.153Z,70.82
2023-05-22T21:20:14.625Z,71.34
2023-05-22T21:22:41.289Z,71.98
2023-05-22T21:25:08.578Z,71.54
2023-05-22T21:27:35.017Z,71.60
2023-05-22T21:30:01.447Z,70.46
2023-05-22T21:32:27.890Z,71.92
2023-05-22T21:34:54.366Z,73.72
2023-05-22T21:37:20.812Z,73.36
2023-05-22T21:39:47.277Z,74.00
2023-05-22T21:42:16.276Z,73.99
2023-05-22T21:44:42.830Z,75.03
2023-05-22T21:47:09.736Z,74.54
2023-05-22T21:49:38.756Z,74.83
2023-05-22T21:52:05.922Z,74.50
2023-05-22T21:54:32.381Z,74.75
2023-05-22T21:56:58.902Z,74.82
2023-05-22T21:59:25.426Z,74.06
2023-05-22T22:01:51.974Z,73.27
2023-05-22T22:04:18.454Z,73.03
2023-05-22T22:06:44.931Z,73.94
2023-05-22T22:09:11.369Z,73.73
2023-05-22T22:11:37.864Z,74.92
2023-05-22T22:14:04.350Z,75.94
2023-05-22T22:16:35.395Z,75.21
2023-05-22T22:19:02.729Z,75.21
2023-05-22T22:21:29.666Z,74.73
2023-05-22T22:23:56.107Z,75.24
2023-05-22T22:26:22.606Z,74.78
2023-05-22T22:28:49.027Z,74.41
2023-05-22T22:31:15.617Z,74.32
2023-05-22T22:33:42.056Z,73.88
2023-05-22T22:36:08.782Z,74.41
2023-05-22T22:38:35.400Z,74.88
2023-05-22T22:41:01.893Z,75.36
2023-05-22T22:43:28.314Z,74.55
2023-05-22T22:45:55.716Z,75.49
2023-05-22T22:48:22.455Z,76.14
2023-05-22T22:50:49.342Z,75.26
2023-05-22T22:53:15.820Z,76.16
2023-05-22T22:55:42.601Z,75.84
2023-05-22T22:58:09.544Z,76.52
2023-05-22T23:00:36.663Z,75.99
2023-05-22T23:03:03.261Z,76.28
2023-05-22T23:05:29.757Z,76.49
2023-05-22T23:07:58.285Z,76.29
2023-05-22T23:10:24.788Z,75.54
2023-05-22T23:12:51.216Z,77.25
2023-05-22T23:15:17.792Z,76.37
2023-05-22T23:17:44.349Z,76.46
2023-05-22T23:20:11.082Z,77.00
2023-05-22T23:22:37.713Z,77.62
2023-05-22T23:25:04.418Z,77.31
2023-05-22T23:27:30.972Z,76.19
2023-05-22T23:29:58.153Z,76.40
2023-05-22T23:32:24.903Z,77.02
2023-05-22T23:34:51.406Z,77.28
2023-05-22T23:37:17.851Z,77.12
2023-05-22T23:39:44.268Z,76.58
2023-05-22T23:42:11.910Z,77.13
2023-05-22T23:44:38.332Z,76.73
2023-05-22T23:47:05.763Z,77.10
2023-05-22T23:49:32.349Z,76.76
2023-05-22T23:51:58.944Z,76.08
2023-05-22T23:54:25.432Z,76.04
2023-05-22T23:56:51.874Z,76.54
2023-05-22T23:59:18.314Z,76.62
